Time;durP1;ratioP1;P1;durP2;ratioP2;P2;SDS_P1;SDS_P2;PMS_P1;PMS_P2;Temp;Humidity;BMP_temperature;BMP_pressure;BME280_temperature;BME280_humidity;BME280_pressure;Samples;Min_cycle;Max_cycle;Signal;HPM_P1;HPM_P2
2021/12/12 00:00:17;;;;;;;57.05;26.92;;;4.40;99.90;;;;;;4955827;28;20039;-84
2021/12/12 00:02:56;;;;;;;44.13;22.65;;;4.30;99.90;;;;;;4939669;28;20081;-84
2021/12/12 00:05:31;;;;;;;57.20;26.08;;;4.40;99.90;;;;;;4934201;28;20082;-84
2021/12/12 00:07:57;;;;;;;54.28;25.77;;;4.40;99.90;;;;;;4956016;28;20105;-84
2021/12/12 00:10:26;;;;;;;49.47;25.38;;;4.30;99.90;;;;;;4949634;28;20046;-84
2021/12/12 00:12:57;;;;;;;58.20;27.40;;;4.40;99.90;;;;;;4955784;28;20235;-84
2021/12/12 00:15:24;;;;;;;51.28;24.65;;;4.40;99.90;;;;;;4937756;28;20050;-84
2021/12/12 00:17:50;;;;;;;47.28;25.02;;;4.40;99.90;;;;;;4955461;28;20576;-84
2021/12/12 00:20:20;;;;;;;52.92;26.48;;;4.40;99.90;;;;;;4936644;28;20047;-84
2021/12/12 00:22:47;;;;;;;48.90;25.90;;;4.40;99.90;;;;;;4948242;28;20043;-84
2021/12/12 00:25:13;;;;;;;51.72;25.98;;;4.40;99.90;;;;;;4955834;28;20043;-84
2021/12/12 00:27:39;;;;;;;57.97;26.05;;;4.40;99.90;;;;;;4955591;28;20046;-84
2021/12/12 00:30:08;;;;;;;48.78;24.33;;;4.40;99.90;;;;;;4956103;28;20409;-84
2021/12/12 00:32:36;;;;;;;55.35;25.90;;;4.40;99.90;;;;;;4954680;28;20066;-84
2021/12/12 00:35:05;;;;;;;43.17;24.55;;;4.50;99.90;;;;;;4939030;28;20035;-84
2021/12/12 00:37:32;;;;;;;61.70;25.08;;;4.50;99.90;;;;;;4955252;28;20121;-84
2021/12/12 00:40:06;;;;;;;48.72;25.17;;;4.50;99.90;;;;;;4955053;28;20058;-84
2021/12/12 00:42:36;;;;;;;52.22;24.98;;;4.50;99.90;;;;;;4955096;28;20039;-84
2021/12/12 00:45:08;;;;;;;57.00;26.00;;;4.50;99.90;;;;;;4954137;28;20046;-84
2021/12/12 00:47:34;;;;;;;49.22;25.35;;;4.50;99.90;;;;;;4954871;28;20027;-84
2021/12/12 00:50:00;;;;;;;54.03;25.60;;;4.50;99.90;;;;;;4946301;29;20047;-84
2021/12/12 00:52:25;;;;;;;48.40;25.60;;;4.60;99.90;;;;;;4966315;28;20075;-84
2021/12/12 00:54:51;;;;;;;52.67;24.23;;;4.50;99.90;;;;;;4958644;28;20030;-84
2021/12/12 00:57:20;;;;;;;58.33;26.02;;;4.60;99.90;;;;;;4952872;28;20038;-84
2021/12/12 00:59:47;;;;;;;59.95;26.15;;;4.60;99.90;;;;;;4954998;28;20046;-84
2021/12/12 01:02:22;;;;;;;49.08;25.90;;;4.60;99.90;;;;;;4947187;28;20035;-84
2021/12/12 01:04:52;;;;;;;54.75;25.80;;;4.60;99.90;;;;;;4947606;28;20054;-84
2021/12/12 01:07:23;;;;;;;54.65;25.95;;;4.60;99.90;;;;;;4939008;28;20073;-84
2021/12/12 01:09:55;;;;;;;54.50;26.48;;;4.60;99.90;;;;;;4938741;28;20046;-84
2021/12/12 01:12:30;;;;;;;55.25;26.55;;;4.60;99.90;;;;;;4938942;28;20097;-84
2021/12/12 01:15:03;;;;;;;57.67;26.15;;;4.60;99.90;;;;;;4955035;28;20130;-84
2021/12/12 01:17:39;;;;;;;54.05;26.20;;;4.60;99.90;;;;;;4955022;28;20057;-84
2021/12/12 01:20:14;;;;;;;47.85;24.15;;;4.60;99.90;;;;;;4938889;28;20501;-83
2021/12/12 01:22:42;;;;;;;47.22;23.52;;;4.60;99.90;;;;;;4952919;28;20043;-84
2021/12/12 01:25:22;;;;;;;48.65;22.67;;;4.70;99.90;;;;;;4954396;28;20035;-83
2021/12/12 01:27:48;;;;;;;47.05;23.67;;;4.70;99.90;;;;;;4954755;28;20058;-84
2021/12/12 01:30:16;;;;;;;48.05;22.95;;;4.70;99.90;;;;;;4954234;28;20039;-84
2021/12/12 01:32:42;;;;;;;48.55;23.08;;;4.70;99.90;;;;;;4954631;28;20089;-84
2021/12/12 01:35:15;;;;;;;49.28;22.95;;;4.70;99.90;;;;;;4954570;28;20042;-84
2021/12/12 01:37:51;;;;;;;47.00;22.63;;;4.70;99.90;;;;;;4954547;28;20134;-84
2021/12/12 01:40:25;;;;;;;48.92;24.00;;;4.70;99.90;;;;;;4956914;28;20552;-84
2021/12/12 01:42:59;;;;;;;49.38;21.25;;;4.70;99.90;;;;;;4952280;28;20445;-84
2021/12/12 01:45:29;;;;;;;44.75;21.33;;;4.80;99.90;;;;;;4951773;28;20038;-84
2021/12/12 01:48:24;;;;;;;46.05;22.13;;;4.80;99.90;;;;;;4938341;28;20097;-84
2021/12/12 01:50:54;;;;;;;42.30;21.60;;;4.70;99.90;;;;;;4956364;28;20409;-84
2021/12/12 01:53:25;;;;;;;47.00;21.60;;;4.80;99.90;;;;;;4942500;28;20121;-84
2021/12/12 01:56:01;;;;;;;47.58;21.42;;;4.80;99.90;;;;;;4942394;28;20485;-84
2021/12/12 01:58:30;;;;;;;47.67;21.70;;;4.80;99.90;;;;;;4954356;28;20464;-84
2021/12/12 02:01:07;;;;;;;47.35;21.38;;;4.80;99.90;;;;;;4954883;28;20046;-84
2021/12/12 02:03:36;;;;;;;40.25;20.55;;;4.80;99.90;;;;;;4938566;29;20047;-84
2021/12/12 02:06:07;;;;;;;53.00;21.33;;;4.80;99.90;;;;;;4968623;28;20445;-84
2021/12/12 02:08:35;;;;;;;42.10;21.33;;;4.80;99.90;;;;;;4958145;28;20039;-84
2021/12/12 02:11:06;;;;;;;42.90;20.30;;;4.80;99.90;;;;;;4958034;28;20050;-84
2021/12/12 02:13:38;;;;;;;41.42;20.15;;;4.80;99.90;;;;;;4941125;28;20031;-84
2021/12/12 02:16:04;;;;;;;37.50;19.57;;;4.90;99.90;;;;;;4958187;28;20078;-84
2021/12/12 02:18:34;;;;;;;46.30;19.83;;;4.80;99.90;;;;;;4958028;28;20076;-85
2021/12/12 02:21:18;;;;;;;43.22;19.63;;;4.80;99.90;;;;;;4957947;28;20053;-84
2021/12/12 02:37:33;;;;;;;40.58;19.45;;;4.80;99.90;;;;;;4957896;28;20078;-84
2021/12/12 02:40:00;;;;;;;43.47;17.70;;;4.80;99.90;;;;;;4939577;29;20039;-84
2021/12/12 02:42:27;;;;;;;38.45;18.05;;;4.80;99.90;;;;;;4955581;28;20461;-84
2021/12/12 02:44:57;;;;;;;40.90;18.48;;;4.80;99.90;;;;;;4958393;28;20073;-84
2021/12/12 02:47:32;;;;;;;36.60;17.73;;;4.80;99.90;;;;;;4963545;28;20050;-84
2021/12/12 02:50:13;;;;;;;41.97;17.63;;;4.80;99.90;;;;;;4967193;28;20501;-84
2021/12/12 02:52:41;;;;;;;34.83;17.52;;;4.80;99.90;;;;;;4957296;28;20307;-84
2021/12/12 02:55:14;;;;;;;36.80;16.23;;;4.80;99.90;;;;;;4957093;28;20512;-84
2021/12/12 02:57:40;;;;;;;34.42;17.63;;;4.80;99.90;;;;;;4956630;28;20042;-84
2021/12/12 03:00:10;;;;;;;39.75;16.83;;;4.80;99.90;;;;;;4956978;28;20562;-84
2021/12/12 03:02:43;;;;;;;34.45;17.02;;;4.80;99.90;;;;;;4957256;28;20053;-84
2021/12/12 03:05:09;;;;;;;32.10;16.38;;;4.80;99.90;;;;;;4940877;28;20520;-84
2021/12/12 03:07:35;;;;;;;39.78;17.45;;;4.80;99.90;;;;;;4956198;28;20074;-84
2021/12/12 03:10:05;;;;;;;37.30;17.35;;;4.80;99.90;;;;;;4957066;28;20074;-84
2021/12/12 03:12:35;;;;;;;34.22;15.60;;;4.80;99.90;;;;;;4956730;28;20077;-84
2021/12/12 03:15:14;;;;;;;40.08;17.52;;;4.90;99.90;;;;;;4952719;28;20078;-84
2021/12/12 03:17:41;;;;;;;36.00;16.50;;;4.80;99.90;;;;;;4955758;28;20046;-84
2021/12/12 03:20:23;;;;;;;30.17;15.63;;;4.90;99.90;;;;;;4936068;29;20032;-84
2021/12/12 03:22:52;;;;;;;33.50;16.15;;;4.80;99.90;;;;;;4949833;28;20122;-84
2021/12/12 03:25:18;;;;;;;35.67;16.17;;;4.80;99.90;;;;;;4956945;28;20516;-84
2021/12/12 03:27:44;;;;;;;35.70;16.00;;;4.90;99.90;;;;;;4940608;28;20043;-84
2021/12/12 03:30:10;;;;;;;37.80;15.75;;;4.90;99.90;;;;;;4956803;28;20069;-84
2021/12/12 03:32:36;;;;;;;42.97;16.40;;;4.90;99.90;;;;;;4956036;28;20042;-84
2021/12/12 03:35:04;;;;;;;28.15;14.32;;;4.90;99.90;;;;;;4941297;28;20061;-84
2021/12/12 03:37:32;;;;;;;36.47;16.20;;;4.90;99.90;;;;;;4957305;28;20053;-83
2021/12/12 03:40:01;;;;;;;34.38;14.85;;;4.90;99.90;;;;;;4952839;28;20452;-84
2021/12/12 03:42:28;;;;;;;36.05;15.70;;;4.90;99.90;;;;;;4962920;28;20035;-84
2021/12/12 03:44:57;;;;;;;35.70;16.10;;;4.90;99.90;;;;;;4956358;28;20038;-84
2021/12/12 03:47:36;;;;;;;31.90;15.93;;;4.90;99.90;;;;;;4940925;28;20053;-84
2021/12/12 03:50:10;;;;;;;34.88;15.90;;;4.90;99.90;;;;;;4940428;28;20057;-83
2021/12/12 03:52:35;;;;;;;35.78;15.38;;;4.90;99.90;;;;;;4955743;28;20034;-84
2021/12/12 03:55:02;;;;;;;31.48;15.10;;;4.90;99.90;;;;;;4947135;28;20053;-83
2021/12/12 03:57:29;;;;;;;31.33;14.32;;;4.90;99.90;;;;;;4955943;28;20050;-84
2021/12/12 03:59:58;;;;;;;37.85;14.15;;;4.90;99.90;;;;;;4956514;28;20054;-83
2021/12/12 04:02:23;;;;;;;28.88;15.05;;;5.00;99.90;;;;;;4955905;28;20089;-83
2021/12/12 04:04:49;;;;;;;31.58;14.40;;;4.90;99.90;;;;;;4972698;28;20034;-84
2021/12/12 04:07:25;;;;;;;30.80;13.95;;;4.90;99.90;;;;;;4973047;28;20193;-84
2021/12/12 04:09:51;;;;;;;27.00;13.02;;;5.00;99.90;;;;;;4955945;28;20046;-85
2021/12/12 04:12:18;;;;;;;34.22;14.45;;;5.00;99.90;;;;;;4939465;28;20477;-84
2021/12/12 04:14:46;;;;;;;27.92;13.20;;;5.10;99.90;;;;;;4972625;28;20041;-84
2021/12/12 04:17:15;;;;;;;29.67;12.30;;;5.00;99.90;;;;;;4956059;28;20047;-83
2021/12/12 04:19:44;;;;;;;32.40;14.35;;;5.10;99.90;;;;;;4956049;28;20453;-84
2021/12/12 04:22:10;;;;;;;27.33;14.35;;;5.10;99.90;;;;;;4955480;28;20386;-84
2021/12/12 04:24:40;;;;;;;25.85;13.73;;;5.10;99.90;;;;;;4955971;28;20043;-85
2021/12/12 04:27:07;;;;;;;21.83;12.88;;;5.10;99.90;;;;;;4955756;28;20097;-84
2021/12/12 04:29:37;;;;;;;25.67;13.50;;;5.20;99.90;;;;;;4956005;28;20039;-84
2021/12/12 04:32:09;;;;;;;29.13;14.43;;;5.20;99.90;;;;;;4971674;28;20053;-84
2021/12/12 04:34:41;;;;;;;29.92;14.30;;;5.10;99.90;;;;;;4956301;28;20046;-84
2021/12/12 04:37:08;;;;;;;25.98;12.55;;;5.20;99.90;;;;;;4956104;28;20129;-84
2021/12/12 04:39:37;;;;;;;25.10;12.63;;;5.20;99.90;;;;;;4955626;28;20047;-85
2021/12/12 04:42:12;;;;;;;22.00;12.65;;;5.20;99.90;;;;;;4955106;28;20461;-84
2021/12/12 04:44:40;;;;;;;24.42;12.85;;;5.20;99.90;;;;;;4939837;28;20093;-83
2021/12/12 04:50:26;;;;;;;23.05;12.55;;;5.20;99.90;;;;;;4956090;28;20051;-84
2021/12/12 04:52:58;;;;;;;23.52;12.45;;;5.20;99.90;;;;;;4939298;28;20081;-84
2021/12/12 04:55:44;;;;;;;22.00;12.50;;;5.20;99.90;;;;;;4972459;28;20039;-85
2021/12/12 04:58:39;;;;;;;23.85;12.13;;;5.20;99.90;;;;;;4971669;28;20559;-83
2021/12/12 05:01:10;;;;;;;20.70;11.52;;;5.20;99.90;;;;;;4905237;28;20051;-84
2021/12/12 05:03:50;;;;;;;28.48;12.65;;;5.30;99.90;;;;;;4955443;28;20386;-84
2021/12/12 05:06:32;;;;;;;18.08;11.02;;;5.20;99.90;;;;;;4955334;28;20046;-84
2021/12/12 05:09:09;;;;;;;20.92;11.52;;;5.20;99.90;;;;;;4955507;28;20049;-84
2021/12/12 05:11:49;;;;;;;19.15;10.70;;;5.20;99.90;;;;;;4955139;28;20117;-84
2021/12/12 05:14:23;;;;;;;18.55;10.93;;;5.20;99.90;;;;;;4939478;28;20077;-84
2021/12/12 05:17:13;;;;;;;19.27;10.27;;;5.20;99.90;;;;;;4939441;28;20143;-85
2021/12/12 05:19:46;;;;;;;22.90;10.60;;;5.30;99.90;;;;;;4955342;28;20046;-84
2021/12/12 05:22:17;;;;;;;16.65;10.02;;;5.30;99.90;;;;;;4939248;28;20573;-84
2021/12/12 05:24:47;;;;;;;18.23;10.02;;;5.30;99.90;;;;;;4972639;28;20046;-85
2021/12/12 05:27:17;;;;;;;14.60;7.97;;;5.30;99.90;;;;;;4956778;28;20413;-87
2021/12/12 05:29:56;;;;;;;14.77;8.32;;;5.40;99.90;;;;;;4957202;28;20625;-86
2021/12/12 05:32:23;;;;;;;14.80;9.20;;;5.40;99.90;;;;;;4955296;28;20125;-84
2021/12/12 05:34:51;;;;;;;14.50;8.43;;;5.40;99.90;;;;;;4939153;28;20141;-86
2021/12/12 05:37:18;;;;;;;16.73;9.50;;;5.40;99.90;;;;;;4955071;28;20520;-84
2021/12/12 05:39:45;;;;;;;12.80;8.05;;;5.40;99.90;;;;;;4939147;28;20433;-84
2021/12/12 05:42:14;;;;;;;16.17;9.88;;;5.40;99.90;;;;;;4939602;28;20043;-85
2021/12/12 05:44:41;;;;;;;15.98;9.63;;;5.40;99.90;;;;;;4936113;29;20046;-84
2021/12/12 05:47:09;;;;;;;16.48;9.60;;;5.40;99.90;;;;;;4935911;29;20045;-84
2021/12/12 05:49:41;;;;;;;14.82;9.68;;;5.40;99.90;;;;;;4935591;29;20071;-85
2021/12/12 05:52:16;;;;;;;18.60;9.75;;;5.40;99.90;;;;;;4919324;29;20043;-85
2021/12/12 05:54:46;;;;;;;17.67;9.73;;;5.40;99.90;;;;;;4941008;28;20039;-85
2021/12/12 05:57:13;;;;;;;17.52;10.60;;;5.50;99.90;;;;;;4954230;28;20049;-84
2021/12/12 05:59:39;;;;;;;20.08;10.75;;;5.50;99.90;;;;;;4954963;28;20054;-85
2021/12/12 06:02:06;;;;;;;16.50;9.95;;;5.50;99.90;;;;;;4938315;28;20041;-84
2021/12/12 06:04:34;;;;;;;18.35;10.77;;;5.50;99.90;;;;;;4938630;28;20058;-85
2021/12/12 06:07:06;;;;;;;19.35;10.68;;;5.50;99.90;;;;;;4954553;28;20046;-85
2021/12/12 06:09:34;;;;;;;15.45;8.55;;;5.50;99.90;;;;;;4954679;28;20505;-84
2021/12/12 06:12:01;;;;;;;15.85;10.40;;;5.60;99.90;;;;;;4953493;28;20050;-84
2021/12/12 06:14:31;;;;;;;14.85;10.15;;;5.60;99.90;;;;;;4954686;28;20122;-84
2021/12/12 06:17:00;;;;;;;17.67;10.05;;;5.60;99.90;;;;;;4954828;28;20043;-85
2021/12/12 06:19:27;;;;;;;20.48;11.23;;;5.60;99.90;;;;;;4954399;28;20062;-85
2021/12/12 06:21:58;;;;;;;16.35;9.73;;;5.60;99.90;;;;;;4954305;28;20101;-84
2021/12/12 06:24:27;;;;;;;19.20;10.52;;;5.60;99.90;;;;;;4954553;28;20047;-85
2021/12/12 06:26:55;;;;;;;18.35;9.50;;;5.60;99.90;;;;;;4953810;28;20046;-85
2021/12/12 06:29:21;;;;;;;18.67;11.77;;;5.60;99.90;;;;;;4954231;28;20113;-84
2021/12/12 06:31:50;;;;;;;15.75;10.25;;;5.60;99.90;;;;;;4948248;29;20544;-84
2021/12/12 06:34:16;;;;;;;18.70;10.70;;;5.60;99.90;;;;;;4936641;29;20046;-85
2021/12/12 06:36:43;;;;;;;17.38;10.50;;;5.70;99.90;;;;;;4938487;29;20039;-84
2021/12/12 06:39:11;;;;;;;16.67;10.65;;;5.70;99.90;;;;;;4922604;29;20070;-84
2021/12/12 06:41:37;;;;;;;18.67;11.23;;;5.70;99.90;;;;;;4951492;28;20102;-84
2021/12/12 06:44:05;;;;;;;19.55;11.05;;;5.70;99.90;;;;;;4988136;28;20054;-84
2021/12/12 06:46:31;;;;;;;20.25;11.35;;;5.70;99.90;;;;;;4941346;28;20074;-84
2021/12/12 06:48:59;;;;;;;19.10;11.15;;;5.70;99.90;;;;;;4941550;28;20049;-84
2021/12/12 06:51:27;;;;;;;16.80;11.15;;;5.70;99.90;;;;;;4957525;28;20370;-84
2021/12/12 06:53:54;;;;;;;17.70;11.18;;;5.70;99.90;;;;;;4957185;28;20081;-84
2021/12/12 06:56:20;;;;;;;18.23;11.57;;;5.70;99.90;;;;;;4945589;28;20070;-85
2021/12/12 06:58:48;;;;;;;19.73;11.85;;;5.80;99.90;;;;;;4938245;29;20074;-84
2021/12/12 07:01:24;;;;;;;20.17;11.73;;;5.80;99.90;;;;;;4937941;29;20532;-85
2021/12/12 07:03:52;;;;;;;23.10;11.82;;;5.80;99.90;;;;;;4932593;29;20043;-85
2021/12/12 07:06:19;;;;;;;20.55;11.43;;;5.80;99.90;;;;;;4941589;28;20046;-85
2021/12/12 07:08:45;;;;;;;21.48;12.82;;;5.80;99.90;;;;;;4957309;28;20058;-85
2021/12/12 07:11:13;;;;;;;23.17;12.30;;;5.80;99.90;;;;;;4957278;28;20133;-85
2021/12/12 07:13:39;;;;;;;16.73;11.43;;;5.80;99.90;;;;;;4956902;28;20042;-85
2021/12/12 07:16:05;;;;;;;22.25;11.82;;;5.80;99.90;;;;;;4957578;28;20035;-85
2021/12/12 07:18:33;;;;;;;24.63;13.18;;;5.90;99.90;;;;;;4957717;28;20043;-85
2021/12/12 07:21:04;;;;;;;22.25;12.02;;;5.90;99.90;;;;;;4940541;28;20177;-85
2021/12/12 07:23:31;;;;;;;18.27;11.68;;;5.90;99.90;;;;;;4956690;28;20047;-85
2021/12/12 07:26:03;;;;;;;22.25;12.27;;;5.90;99.90;;;;;;4940304;28;20050;-84
2021/12/12 07:28:29;;;;;;;23.23;12.73;;;5.90;99.90;;;;;;4956667;28;20038;-84
2021/12/12 07:30:59;;;;;;;25.08;12.75;;;5.90;99.90;;;;;;4949943;28;20138;-85
2021/12/12 07:33:25;;;;;;;22.30;12.75;;;5.90;99.90;;;;;;4953041;28;20038;-81
2021/12/12 07:35:52;;;;;;;26.50;13.18;;;6.00;99.90;;;;;;4947075;28;20027;-84
2021/12/12 07:38:17;;;;;;;20.85;12.80;;;5.90;99.90;;;;;;4951517;28;20379;-84
2021/12/12 07:40:44;;;;;;;24.48;13.30;;;5.90;99.90;;;;;;4955776;28;20109;-84
2021/12/12 07:43:11;;;;;;;25.45;13.60;;;6.00;99.90;;;;;;4951207;28;20046;-84
2021/12/12 07:45:37;;;;;;;27.42;14.38;;;6.00;99.90;;;;;;4957229;28;20042;-84
2021/12/12 07:48:05;;;;;;;22.13;12.88;;;6.10;99.90;;;;;;4942834;28;20129;-84
2021/12/12 07:50:31;;;;;;;24.02;13.32;;;6.10;99.90;;;;;;4953699;28;20558;-84
2021/12/12 07:52:58;;;;;;;22.17;13.15;;;6.10;99.90;;;;;;4951968;29;20114;-85
2021/12/12 07:55:26;;;;;;;23.45;12.68;;;6.10;99.90;;;;;;4948623;28;20039;-84
2021/12/12 07:57:52;;;;;;;27.00;13.43;;;6.10;99.90;;;;;;4950895;28;20039;-84
2021/12/12 08:00:22;;;;;;;24.58;13.43;;;6.20;99.90;;;;;;4952289;28;20193;-82
2021/12/12 08:02:50;;;;;;;30.65;14.68;;;6.20;99.90;;;;;;4943033;28;20042;-83
2021/12/12 08:05:18;;;;;;;25.58;13.57;;;6.20;99.90;;;;;;4950126;28;20042;-84
2021/12/12 08:07:47;;;;;;;29.45;14.00;;;6.20;99.90;;;;;;4954283;28;20513;-84
2021/12/12 08:10:15;;;;;;;27.02;13.88;;;6.30;99.90;;;;;;4939011;28;20418;-84
2021/12/12 08:12:43;;;;;;;27.10;13.82;;;6.30;99.90;;;;;;4949802;28;20042;-85
2021/12/12 08:15:11;;;;;;;25.48;13.73;;;6.40;99.90;;;;;;4956204;28;20038;-84
2021/12/12 08:17:39;;;;;;;28.88;14.20;;;6.40;99.90;;;;;;4955701;28;20504;-85
2021/12/12 08:20:06;;;;;;;24.92;13.30;;;6.50;99.90;;;;;;4952607;28;20389;-85
2021/12/12 08:22:33;;;;;;;27.65;14.52;;;6.50;99.90;;;;;;4949380;28;20117;-84
2021/12/12 08:25:01;;;;;;;31.38;15.05;;;6.50;99.90;;;;;;4955672;28;20401;-84
2021/12/12 08:27:28;;;;;;;26.17;14.00;;;6.50;99.90;;;;;;4955987;28;20042;-84
2021/12/12 08:29:55;;;;;;;28.90;14.05;;;6.50;99.90;;;;;;4956110;28;20023;-84
2021/12/12 08:32:22;;;;;;;30.52;14.98;;;6.50;99.90;;;;;;4955444;28;20564;-84
2021/12/12 08:34:48;;;;;;;24.70;13.73;;;6.50;99.90;;;;;;4969241;28;20049;-84
2021/12/12 08:37:14;;;;;;;33.42;14.52;;;6.60;99.90;;;;;;4939803;28;20031;-84
2021/12/12 08:39:40;;;;;;;29.33;14.65;;;6.60;99.90;;;;;;4955862;28;20268;-84
2021/12/12 08:42:07;;;;;;;27.70;13.98;;;6.50;99.90;;;;;;4939227;28;20168;-84
2021/12/12 08:44:35;;;;;;;27.90;14.52;;;6.60;99.90;;;;;;4939575;28;20133;-84
2021/12/12 08:47:03;;;;;;;28.58;14.70;;;6.60;99.90;;;;;;4955566;28;20046;-84
2021/12/12 08:49:33;;;;;;;33.17;14.20;;;6.60;99.90;;;;;;4939198;28;20070;-84
2021/12/12 08:52:17;;;;;;;25.85;13.93;;;6.70;99.90;;;;;;4954875;28;20086;-84
2021/12/12 08:54:46;;;;;;;31.10;14.93;;;6.70;99.90;;;;;;4954317;28;20051;-84
2021/12/12 08:57:49;;;;;;;30.45;15.27;;;6.70;99.90;;;;;;4951040;28;20066;-84
2021/12/12 09:00:16;;;;;;;31.40;15.00;;;6.70;99.90;;;;;;4950153;28;20054;-84
2021/12/12 09:02:42;;;;;;;31.80;14.88;;;6.70;99.90;;;;;;4937157;28;20496;-84
2021/12/12 09:05:14;;;;;;;31.33;15.75;;;6.80;99.90;;;;;;4950908;28;20117;-84
2021/12/12 09:07:46;;;;;;;29.33;15.25;;;6.80;99.90;;;;;;4949766;28;20045;-83
2021/12/12 09:10:15;;;;;;;;;;;6.80;99.90;;;;;;4939957;28;20043;-83
2021/12/12 09:13:05;;;;;;;32.88;15.20;;;6.80;99.90;;;;;;4946553;28;19926;-83
2021/12/12 09:15:34;;;;;;;33.08;15.35;;;6.80;99.90;;;;;;4948772;28;20138;-83
2021/12/12 09:18:05;;;;;;;33.42;16.17;;;6.90;99.90;;;;;;4951563;28;20374;-85
2021/12/12 09:20:35;;;;;;;31.10;15.27;;;6.90;99.90;;;;;;4943375;28;20061;-87
2021/12/12 09:23:11;;;;;;;28.08;15.38;;;6.90;99.90;;;;;;4939447;28;20051;-86
2021/12/12 09:25:49;;;;;;;27.63;14.25;;;7.00;99.90;;;;;;4936351;28;20055;-86
2021/12/12 09:28:39;;;;;;;28.73;15.38;;;7.00;99.90;;;;;;4930699;28;20074;-86
2021/12/12 09:31:11;;;;;;;27.92;14.70;;;7.00;99.90;;;;;;4935553;28;20039;-86
2021/12/12 09:33:57;;;;;;;31.23;15.57;;;7.00;99.90;;;;;;4927217;28;20470;-87
2021/12/12 09:36:37;;;;;;;30.15;15.27;;;7.10;99.90;;;;;;4941027;28;20090;-87
2021/12/12 09:39:29;;;;;;;30.17;14.15;;;7.10;99.90;;;;;;4953937;28;20049;-89
2021/12/12 09:42:19;;;;;;;27.75;14.95;;;7.10;99.90;;;;;;4933836;28;20478;-90
2021/12/12 09:44:55;;;;;;;29.27;14.55;;;7.20;99.90;;;;;;4949578;28;20106;-90
2021/12/12 09:51:25;;;;;;;25.40;14.07;;;7.30;99.90;;;;;;4954141;28;20499;-84
2021/12/12 09:54:13;;;;;;;31.33;14.43;;;7.30;99.90;;;;;;4951472;28;20058;-85
2021/12/12 09:56:49;;;;;;;29.30;14.82;;;7.20;99.90;;;;;;4948900;28;20128;-84
2021/12/12 09:59:54;;;;;;;26.40;14.13;;;7.30;99.90;;;;;;4952408;28;20121;-84
2021/12/12 10:03:00;;;;;;;28.73;14.88;;;7.40;99.90;;;;;;4948437;28;20035;-84
2021/12/12 10:05:50;;;;;;;35.22;14.93;;;7.40;99.90;;;;;;4916595;28;20133;-84
2021/12/12 10:08:41;;;;;;;29.73;14.48;;;7.40;99.90;;;;;;4954974;28;20043;-84
2021/12/12 10:11:32;;;;;;;29.25;13.90;;;7.50;99.90;;;;;;4957965;28;20050;-83
2021/12/12 10:14:39;;;;;;;33.95;14.98;;;7.50;99.90;;;;;;4951602;28;20448;-84
2021/12/12 10:17:36;;;;;;;37.25;15.45;;;7.50;99.90;;;;;;4954022;28;20513;-84
2021/12/12 10:20:31;;;;;;;38.08;16.40;;;7.50;99.90;;;;;;4938286;28;20042;-84
2021/12/12 10:23:05;;;;;;;35.47;16.20;;;7.50;99.90;;;;;;4956311;28;20496;-84
2021/12/12 10:25:35;;;;;;;30.27;14.55;;;7.50;99.90;;;;;;4940119;28;20039;-84
2021/12/12 10:28:06;;;;;;;40.50;15.65;;;7.60;99.90;;;;;;4955871;28;20046;-83
2021/12/12 10:30:38;;;;;;;36.78;16.35;;;7.60;99.90;;;;;;4957576;28;20049;-84
2021/12/12 10:33:09;;;;;;;;;;;7.60;99.90;;;;;;4941500;28;20034;-84
2021/12/12 10:35:53;;;;;;;35.03;15.00;;;7.60;99.90;;;;;;4959305;28;19925;-85
2021/12/12 10:38:34;;;;;;;35.50;15.13;;;7.60;99.90;;;;;;4951690;28;20070;-83
2021/12/12 10:41:09;;;;;;;28.52;14.45;;;7.70;99.90;;;;;;4927483;28;20105;-83
2021/12/12 10:43:53;;;;;;;33.53;15.13;;;7.70;99.90;;;;;;4943928;28;20059;-83
2021/12/12 10:46:32;;;;;;;33.13;14.75;;;7.70;99.90;;;;;;4963803;28;20493;-83
2021/12/12 10:49:19;;;;;;;31.33;14.32;;;7.80;99.90;;;;;;4933639;28;20629;-84
2021/12/12 10:51:51;;;;;;;31.00;15.63;;;7.80;99.90;;;;;;4950969;28;20043;-83
2021/12/12 10:54:26;;;;;;;34.97;15.13;;;7.80;99.90;;;;;;4951424;28;20413;-83
2021/12/12 10:57:01;;;;;;;28.02;14.40;;;7.80;99.90;;;;;;4958599;28;20503;-83
2021/12/12 10:59:36;;;;;;;35.72;14.52;;;7.90;99.90;;;;;;4963142;28;20078;-82
2021/12/12 11:02:12;;;;;;;33.22;14.27;;;7.90;99.90;;;;;;4950170;28;20069;-83
2021/12/12 11:04:48;;;;;;;32.08;14.27;;;8.00;99.90;;;;;;4950375;28;20043;-83
2021/12/12 11:07:23;;;;;;;30.20;13.90;;;8.00;99.90;;;;;;4951212;28;20123;-84
2021/12/12 11:10:12;;;;;;;33.38;14.77;;;8.00;99.90;;;;;;4949777;28;20043;-83
2021/12/12 11:12:42;;;;;;;27.63;12.82;;;8.00;99.90;;;;;;4947756;28;20054;-83
2021/12/12 11:15:15;;;;;;;34.20;14.52;;;8.00;99.90;;;;;;4949980;28;20054;-85
2021/12/12 11:17:59;;;;;;;27.38;13.60;;;8.10;99.90;;;;;;4944876;28;20385;-84
2021/12/12 11:20:31;;;;;;;28.23;13.80;;;8.10;99.90;;;;;;4957808;28;20042;-83
2021/12/12 11:28:38;;;;;;;31.65;13.63;;;8.20;99.90;;;;;;5700832;22;20053;-54
2021/12/12 11:31:07;;;;;;;21.50;12.23;;;8.20;99.90;;;;;;5009189;28;20064;-52
2021/12/12 11:33:36;;;;;;;25.95;12.43;;;8.20;99.90;;;;;;5009227;28;20038;-52
2021/12/12 11:36:04;;;;;;;24.20;12.48;;;8.30;99.90;;;;;;5004663;28;20042;-53
2021/12/12 11:38:43;;;;;;;30.73;12.27;;;8.30;99.90;;;;;;5008774;28;20053;-53
2021/12/12 11:41:33;;;;;;;28.05;12.73;;;8.30;99.90;;;;;;4990055;28;20297;-55
2021/12/12 11:44:30;;;;;;;29.20;12.88;;;8.30;99.90;;;;;;5005527;28;20565;-53
2021/12/12 11:47:10;;;;;;;22.63;11.90;;;8.40;99.90;;;;;;5015236;28;20042;-55
2021/12/12 11:53:46;;;;;;;29.70;12.43;;;8.40;99.90;;;;;;4981398;28;20052;-54
2021/12/12 11:56:34;;;;;;;25.92;12.23;;;8.50;99.90;;;;;;4986719;28;20414;-54
2021/12/12 11:59:11;;;;;;;23.85;11.50;;;8.50;99.90;;;;;;5005248;28;20549;-52
2021/12/12 12:01:46;;;;;;;28.77;11.85;;;8.60;99.90;;;;;;5012707;28;20046;-52
2021/12/12 12:04:32;;;;;;;22.48;11.07;;;8.60;99.90;;;;;;5012915;28;20049;-51
2021/12/12 12:07:10;;;;;;;23.08;11.18;;;8.60;99.90;;;;;;5011164;28;20036;-51
2021/12/12 12:10:03;;;;;;;20.17;10.23;;;8.60;99.90;;;;;;5003690;28;20034;-53
2021/12/12 12:12:56;;;;;;;26.42;11.65;;;8.70;99.90;;;;;;4991295;28;20038;-52
2021/12/12 12:15:53;;;;;;;21.25;10.73;;;8.70;99.90;;;;;;5009369;28;20035;-52
2021/12/12 12:18:31;;;;;;;18.17;10.18;;;8.70;99.90;;;;;;4992377;28;20057;-52
2021/12/12 12:20:57;;;;;;;20.70;10.93;;;8.80;99.90;;;;;;5009473;28;20089;-51
2021/12/12 12:23:54;;;;;;;22.75;10.70;;;8.80;99.90;;;;;;5007499;28;20383;-51
2021/12/12 12:29:26;;;;;;;24.98;11.43;;;8.80;99.90;;;;;;4998951;28;20052;-52
2021/12/12 12:32:04;;;;;;;24.52;12.30;;;8.80;99.90;;;;;;5006772;28;20050;-54
2021/12/12 12:34:49;;;;;;;24.17;11.73;;;8.90;99.90;;;;;;4977205;28;20092;-54
2021/12/12 12:37:52;;;;;;;26.70;12.68;;;8.90;99.90;;;;;;4975322;28;20041;-54
2021/12/12 12:40:55;;;;;;;23.77;12.15;;;9.00;99.90;;;;;;5009089;28;20121;-52
2021/12/12 12:43:59;;;;;;;25.92;12.43;;;9.00;99.90;;;;;;5009280;28;20046;-53
2021/12/12 12:47:07;;;;;;;28.08;13.52;;;9.00;99.90;;;;;;4987524;28;20053;-55
2021/12/12 12:49:58;;;;;;;29.63;13.95;;;9.00;99.90;;;;;;4959239;28;20499;-53
2021/12/12 12:52:52;;;;;;;27.50;13.38;;;9.00;99.90;;;;;;5009398;28;20056;-55
2021/12/12 12:55:49;;;;;;;25.50;14.55;;;9.10;99.90;;;;;;5003354;28;20057;-55
2021/12/12 12:58:26;;;;;;;30.88;14.70;;;9.10;99.90;;;;;;4978634;28;20050;-56
2021/12/12 13:01:06;;;;;;;34.53;15.35;;;9.10;99.90;;;;;;5007508;28;20073;-56
2021/12/12 13:03:52;;;;;;;33.08;15.98;;;9.10;99.90;;;;;;4992421;28;20413;-56
2021/12/12 13:06:54;;;;;;;33.63;15.65;;;9.20;99.90;;;;;;4981810;28;20042;-56
2021/12/12 13:09:44;;;;;;;32.65;15.23;;;9.20;99.90;;;;;;4977672;28;20104;-56
2021/12/12 13:12:20;;;;;;;32.88;16.58;;;9.20;99.90;;;;;;4993702;28;20042;-57
2021/12/12 13:15:13;;;;;;;34.80;15.57;;;9.20;99.90;;;;;;5003840;28;20065;-55
2021/12/12 13:17:49;;;;;;;35.33;15.88;;;9.30;99.90;;;;;;5003460;28;20048;-55
2021/12/12 13:20:42;;;;;;;33.30;16.35;;;9.30;99.90;;;;;;4991613;28;20061;-53
2021/12/12 13:23:28;;;;;;;30.33;16.37;;;9.30;99.90;;;;;;5006682;28;20117;-55
2021/12/12 13:25:54;;;;;;;39.97;17.92;;;9.30;99.90;;;;;;5004919;28;20292;-55
2021/12/12 13:28:31;;;;;;;41.80;18.10;;;9.30;99.90;;;;;;5010608;28;20034;-55
2021/12/12 13:31:13;;;;;;;43.63;18.42;;;9.30;99.90;;;;;;4994625;28;20077;-56
2021/12/12 13:33:58;;;;;;;37.45;17.63;;;9.30;99.90;;;;;;5008827;28;20056;-56
2021/12/12 13:37:06;;;;;;;44.00;19.30;;;9.30;99.90;;;;;;4993837;28;20041;-53
2021/12/12 13:40:06;;;;;;;36.38;18.15;;;9.30;99.90;;;;;;4994039;28;20042;-54
2021/12/12 13:43:03;;;;;;;40.55;18.33;;;9.30;99.90;;;;;;5011337;28;20293;-54
2021/12/12 13:45:45;;;;;;;42.50;18.38;;;9.40;99.90;;;;;;5015342;28;20117;-54